Data for 02/27/2014

Time Sea-Level Adjusted Pressure Absolute Pressure Temperature Relative Humidity Dew Point   
(mb) (inHg) (mb) (inHg) (C) (F) (%) (C) (F)
00:05 1013 29.91 842 24.86 -11.5 11.4 82 -13.9 7
00:10 1013 29.91 842 24.86 -11.2 11.9 83 -13.5 7.7
00:15 1013 29.91 842 24.86 -10.7 12.7 80 -13.6 7.5
00:20 1013 29.91 842 24.86 -10.7 12.8 80 -13.5 7.6
00:25 1013 29.91 842 24.86 -10.8 12.5 80 -13.6 7.4
00:30 1013 29.91 842 24.86 -11 12.3 79 -13.9 7
00:35 1013 29.91 842 24.86 -11 12.2 79 -13.9 6.9
00:40 1013 29.91 842 24.86 -11 12.2 78 -14.2 6.5
00:45 1013 29.91 842 24.86 -11.2 11.9 78 -14.3 6.3
00:50 1012 29.88 842 24.86 -11.4 11.4 79 -14.4 6
00:55 1013 29.91 842 24.86 -11.5 11.2 78 -14.6 5.8
01:00 1012 29.88 842 24.86 -11.6 11.2 78 -14.7 5.5
01:05 1012 29.88 842 24.86 -11.6 11.2 79 -14.6 5.8
01:10 1013 29.91 842 24.86 -11.6 11.1 80 -14.5 5.9
01:15 1013 29.91 842 24.86 -11.7 11 80 -14.4 6.1
01:20 1012 29.88 842 24.86 -11.5 11.3 80 -14.4 6.1
01:25 1012 29.88 842 24.86 -11.5 11.3 79 -14.4 6.1
01:30 1013 29.91 842 24.86 -11.4 11.5 78 -14.5 5.8
01:35 1013 29.91 842 24.86 -11.3 11.6 76 -14.7 5.6
01:40 1012 29.88 842 24.86 -11.3 11.7 78 -14.5 5.9
01:45 1012 29.88 842 24.86 -11.2 11.9 78 -14.4 6.2
01:50 1012 29.88 842 24.86 -11.1 12 78 -14.3 6.3
01:55 1012 29.88 842 24.86 -11.4 11.6 77 -14.7 5.6
02:00 1012 29.88 841 24.83 -11.7 11 78 -14.8 5.4
02:05 1012 29.88 841 24.83 -11.5 11.4 76 -14.8 5.3
02:10 1012 29.88 841 24.83 -11.7 11 79 -14.7 5.5
02:15 1012 29.88 841 24.83 -11.7 11 78 -14.8 5.4
02:20 1012 29.88 841 24.83 -11.5 11.2 78 -14.6 5.7
02:25 1012 29.88 841 24.83 -11.2 11.8 77 -14.6 5.8
02:30 1012 29.88 841 24.83 -10.9 12.5 77 -14.1 6.6
02:35 1012 29.88 841 24.83 -10.7 12.8 76 -14.1 6.6
02:40 1012 29.88 841 24.83 -10.6 13 75 -14.2 6.4
02:45 1012 29.88 841 24.83 -10.5 13.1 75 -14.1 6.7
02:50 1012 29.88 841 24.83 -10.6 13 77 -13.9 6.9
02:55 1012 29.88 841 24.83 -10.6 13 77 -13.9 7
03:00 1012 29.88 841 24.83 -10.9 12.5 79 -13.9 7
03:05 1011 29.85 841 24.83 -11.2 11.9 80 -13.9 7
03:10 1011 29.85 841 24.83 -11.1 12.1 79 -14.1 6.7
03:15 1011 29.85 840 24.81 -11.1 11.9 79 -14.2 6.5
03:20 1011 29.85 840 24.81 -10.9 12.4 78 -14.1 6.7
03:25 1011 29.85 840 24.81 -11 12.3 78 -14 6.7
03:30 1011 29.85 840 24.81 -10.7 12.8 76 -14.1 6.6
03:35 1011 29.85 840 24.81 -10.6 12.8 77 -14 6.8
03:40 1011 29.85 840 24.81 -10.6 12.9 76 -14.1 6.6
03:45 1011 29.85 840 24.81 -10.3 13.5 74 -14.1 6.6
03:50 1011 29.85 840 24.81 -10.3 13.5 74 -14 6.8
03:55 1011 29.85 840 24.81 -10.5 13.2 75 -14.1 6.7
04:00 1011 29.85 840 24.81 -10.5 13 76 -14.1 6.7
04:05 1011 29.85 840 24.81 -10.2 13.6 76 -13.7 7.3
04:10 1010 29.83 840 24.81 -9.8 14.4 73 -13.8 7.1
04:15 1010 29.83 840 24.81 -9.5 14.9 72 -13.7 7.4
04:20 1010 29.83 840 24.81 -9.6 14.8 73 -13.6 7.5
04:25 1010 29.83 840 24.81 -9.4 15.1 72 -13.6 7.5
04:30 1010 29.83 839 24.78 -9.5 15 74 -13.3 8
04:35 1010 29.83 839 24.78 -9.8 14.3 77 -13.1 8.4
04:40 1010 29.83 839 24.78 -10.2 13.7 81 -12.9 8.9
04:45 1010 29.83 839 24.78 -10.3 13.5 81 -13 8.7
04:50 1010 29.83 839 24.78 -10 13.9 78 -13.2 8.2
04:55 1010 29.83 839 24.78 -10 14.1 77 -13.2 8.2
05:00 1010 29.83 839 24.78 -10 13.9 76 -13.5 7.8
05:05 1010 29.83 839 24.78 -10 13.9 75 -13.6 7.5
05:10 1010 29.83 839 24.78 -9.8 14.3 75 -13.4 7.8
05:15 1010 29.83 839 24.78 -9.7 14.5 73 -13.6 7.4
05:20 1010 29.83 839 24.78 -9.5 14.8 71 -13.9 7
05:25 1010 29.83 839 24.78 -9.3 15.3 71 -13.6 7.5
05:30 1010 29.83 839 24.78 -9.2 15.4 72 -13.3 8
05:35 1010 29.83 839 24.78 -9 15.8 73 -13 8.6
05:40 1010 29.83 839 24.78 -9.1 15.7 74 -12.8 9
05:45 1010 29.83 839 24.78 -9 15.7 75 -12.7 9.1
05:50 1010 29.83 839 24.78 -8.8 16.3 73 -12.7 9.1
05:55 1009 29.8 839 24.78 -8.6 16.6 72 -12.7 9.1
06:00 1009 29.8 839 24.78 -8.6 16.6 72 -12.8 9
06:05 1009 29.8 838 24.75 -8.7 16.3 73 -12.7 9.1
06:10 1009 29.8 838 24.75 -8.8 16.1 74 -12.7 9.2
06:15 1009 29.8 838 24.75 -9.2 15.4 77 -12.6 9.4
06:20 1009 29.8 838 24.75 -9.3 15.3 76 -12.7 9.1
06:25 1009 29.8 838 24.75 -9.3 15.2 76 -12.7 9.1
06:30 1009 29.8 838 24.75 -9.2 15.4 76 -12.7 9.1
06:35 1009 29.8 838 24.75 -9.2 15.4 75 -12.8 8.9
06:40 1009 29.8 838 24.75 -9.2 15.4 75 -12.9 8.8
06:45 1009 29.8 838 24.75 -9.1 15.7 72 -13.2 8.3
06:50 1009 29.8 838 24.75 -9.1 15.6 70 -13.6 7.6
06:55 1009 29.8 838 24.75 -9.1 15.6 69 -13.8 7.1
07:00 1009 29.8 838 24.75 -9.2 15.5 70 -13.7 7.3
07:05 1009 29.8 838 24.75 -9.4 15.1 68 -14.1 6.5
07:10 1009 29.8 838 24.75 -9.4 15.1 68 -14.3 6.3
07:15 1009 29.8 838 24.75 -9.5 14.9 69 -14.2 6.5
07:20 1009 29.8 838 24.75 -9.6 14.7 71 -13.9 7
07:25 1009 29.8 838 24.75 -9.6 14.7 72 -13.8 7.2
07:30 1009 29.8 838 24.75 -9.7 14.5 75 -13.3 8
07:35 1008 29.77 838 24.75 -9.8 14.3 74 -13.6 7.6
07:40 1008 29.77 838 24.75 -9.9 14.3 76 -13.4 7.9
07:45 1008 29.77 838 24.75 -10.1 13.9 76 -13.4 7.8
07:50 1008 29.77 837 24.72 -10.1 13.9 75 -13.6 7.4
07:55 1008 29.77 837 24.72 -10 14 72 -14.1 6.6
08:00 1008 29.77 837 24.72 -9.9 14.2 77 -13.1 8.3
08:05 1008 29.77 837 24.72 -9.9 14.2 76 -13.3 8
08:10 1008 29.77 837 24.72 -9.9 14.1 75 -13.6 7.6
08:15 1008 29.77 837 24.72 -10 14 74 -13.8 7.2
08:20 1008 29.77 837 24.72 -10 14.1 71 -14.3 6.2
08:25 1008 29.77 837 24.72 -9.8 14.4 81 -12.5 9.5
08:30 1008 29.77 837 24.72 -9.7 14.5 77 -13.1 8.4
08:35 1008 29.77 837 24.72 -9.5 15 68 -14.4 6.1
08:40 1008 29.77 837 24.72 -8.9 16 67 -14 6.8
08:45 1008 29.77 837 24.72 -8.5 16.7 69 -13.3 8.1
08:50 1008 29.77 837 24.72 -8.1 17.5 69 -12.8 8.9
08:55 1008 29.77 837 24.72 -7.8 18 67 -12.9 8.8
09:00 1008 29.77 837 24.72 -7.4 18.7 67 -12.5 9.5
09:05 1008 29.77 837 24.72 -7 19.5 68 -12 10.4
09:10 1008 29.77 837 24.72 -6.9 19.5 69 -11.7 10.9
09:15 1008 29.77 837 24.72 -6.5 20.4 68 -11.4 11.4
09:20 1008 29.77 837 24.72 -5.9 21.3 64 -11.6 11.1
09:25 1008 29.77 837 24.72 -5.2 22.7 61 -11.5 11.2
09:30 1008 29.77 837 24.72 -4.7 23.6 60 -11.2 11.8
09:35 1008 29.77 837 24.72 -4.4 24.1 59 -11.3 11.6
09:40 1008 29.77 837 24.72 -4.5 24 56 -11.9 10.6
09:45 1008 29.77 837 24.72 -4.4 24 58 -11.4 11.4
09:50 1008 29.77 837 24.72 -4.6 23.7 56 -12.1 10.3
09:55 1008 29.77 837 24.72 -4.8 23.4 59 -11.6 11.1
10:00 1008 29.77 837 24.72 -4.9 23.2 61 -11.4 11.4
10:05 1008 29.77 837 24.72 -4.7 23.5 59 -11.5 11.3
10:10 1007 29.74 837 24.72 -3.8 25.1 56 -11.3 11.6
10:15 1007 29.74 837 24.72 -3.4 25.8 56 -11.1 12
10:20 1007 29.74 836 24.69 -4.4 24 58 -11.5 11.3
10:25 1007 29.74 836 24.69 -4.2 24.4 57 -11.4 11.5
10:30 1007 29.74 836 24.69 -3.6 25.5 56 -11.2 11.9
10:35 1007 29.74 836 24.69 -2.8 27 53 -11 12.1
10:40 1007 29.74 836 24.69 -2.6 27.4 55 -10.4 13.3
10:45 1007 29.74 836 24.69 -3 26.7 55 -10.7 12.8
10:50 1007 29.74 836 24.69 -2 28.4 54 -10.1 13.8
10:55 1007 29.74 836 24.69 -1.6 29.1 51 -10.5 13.1
11:00 1007 29.74 836 24.69 -0.9 30.3 49 -10.3 13.4
11:05 1007 29.74 836 24.69 -0.5 31.1 48 -10.2 13.6
11:10 1007 29.74 836 24.69 -0.8 30.6 50 -10 14
11:15 1007 29.74 836 24.69 -1.2 29.8 50 -10.3 13.5
11:20 1007 29.74 836 24.69 -1.6 29.1 54 -9.8 14.3
11:25 1007 29.74 836 24.69 -1.1 30 50 -10.2 13.7
11:30 1007 29.74 836 24.69 -0.9 30.4 49 -10.3 13.5
11:35 1007 29.74 836 24.69 -1 30.2 51 -10 14
11:40 1007 29.74 836 24.69 -1 30.3 50 -10 13.9
11:45 1007 29.74 836 24.69 -1 30.2 49 -10.4 13.3
11:50 1007 29.74 836 24.69 -0.5 31.1 48 -10.3 13.5
11:55 1007 29.74 836 24.69 0.3 32.5 49 -9.3 15.3
12:00 1007 29.74 836 24.69 0.8 33.5 47 -9.1 15.6
12:05 1007 29.74 836 24.69 1 33.8 46 -9.4 15.1
12:10 1006 29.71 836 24.69 0.9 33.5 48 -9 15.7
12:15 1006 29.71 836 24.69 0.9 33.6 47 -9.2 15.4
12:20 1006 29.71 836 24.69 0.8 33.5 47 -9.2 15.4
12:25 1006 29.71 836 24.69 1.1 33.9 49 -8.6 16.5
12:30 1006 29.71 836 24.69 0.9 33.6 47 -9.2 15.4
12:35 1006 29.71 836 24.69 0.7 33.2 48 -9.1 15.6
12:40 1006 29.71 836 24.69 0.7 33.2 48 -9 15.8
12:45 1006 29.71 836 24.69 0.8 33.5 49 -8.7 16.3
12:50 1006 29.71 836 24.69 0.9 33.6 48 -9 15.8
12:55 1006 29.71 836 24.69 0.5 32.9 49 -9 15.9
13:00 1006 29.71 836 24.69 -0.8 30.6 52 -9.3 15.2
13:05 1006 29.71 835 24.66 -0.1 31.9 51 -9 15.9
13:10 1006 29.71 836 24.69 0.7 33.2 50 -8.5 16.7
13:15 1006 29.71 835 24.66 0.3 32.6 52 -8.4 16.8
13:20 1006 29.71 835 24.66 0.1 32.1 52 -8.5 16.6
13:25 1006 29.71 835 24.66 -0.5 31.2 53 -8.8 16.1
13:30 1006 29.71 835 24.66 -0.4 31.4 55 -8.4 16.9
13:35 1006 29.71 835 24.66 -0.5 31.1 55 -8.4 16.9
13:40 1006 29.71 835 24.66 -0 32 52 -8.6 16.5
13:45 1006 29.71 835 24.66 0.7 33.2 49 -8.9 16
13:50 1006 29.71 835 24.66 0.6 33.1 52 -8.1 17.4
13:55 1006 29.71 835 24.66 0.8 33.4 50 -8.5 16.6
14:00 1006 29.71 835 24.66 0.3 32.5 52 -8.4 16.9
14:05 1005 29.68 835 24.66 0.8 33.5 47 -9.2 15.5
14:10 1005 29.68 835 24.66 1.6 34.9 45 -9 15.8
14:15 1005 29.68 835 24.66 2.5 36.5 44 -8.5 16.6
14:20 1005 29.68 835 24.66 3.3 37.9 42 -8.3 17
14:25 1005 29.68 834 24.63 2.8 37.1 44 -8.1 17.4
14:30 1005 29.68 834 24.63 2.3 36.1 48 -7.6 18.3
14:35 1005 29.68 834 24.63 1.5 34.8 53 -7.1 19.2
14:40 1005 29.68 834 24.63 2.5 36.4 49 -7.1 19.3
14:45 1005 29.68 834 24.63 2.7 36.9 48 -7.2 19
14:50 1005 29.68 834 24.63 2.6 36.7 51 -6.5 20.3
14:55 1005 29.68 834 24.63 2.5 36.5 49 -7.2 19.1
15:00 1005 29.68 834 24.63 1.2 34.1 54 -7.2 19
15:05 1005 29.68 834 24.63 0.7 33.3 52 -8 17.6
15:10 1005 29.68 834 24.63 0.1 32.2 55 -7.9 17.9
15:15 1005 29.68 834 24.63 0.3 32.5 55 -7.8 18
15:20 1005 29.68 834 24.63 0.8 33.5 54 -7.5 18.5
15:25 1005 29.68 834 24.63 0.9 33.6 54 -7.4 18.6
15:30 1005 29.68 834 24.63 1.2 34.2 50 -8.1 17.5
15:35 1005 29.68 834 24.63 1.2 34.2 52 -7.6 18.3
15:40 1005 29.68 834 24.63 1.4 34.5 50 -7.9 17.7
15:45 1005 29.68 834 24.63 1.7 35.1 49 -7.8 18
15:50 1004 29.65 834 24.63 2.1 35.9 49 -7.6 18.3
15:55 1004 29.65 834 24.63 2.4 36.3 48 -7.6 18.3
16:00 1004 29.65 834 24.63 2.1 35.8 53 -6.6 20.1
16:05 1004 29.65 834 24.63 2.1 35.7 52 -6.9 19.6
16:10 1004 29.65 834 24.63 2.4 36.3 49 -7.2 19
16:15 1004 29.65 834 24.63 2.5 36.5 51 -6.6 20.2
16:20 1004 29.65 833 24.6 2.4 36.4 50 -7 19.4
16:25 1004 29.65 833 24.6 1.7 35 54 -6.7 19.9
16:30 1004 29.65 833 24.6 1.7 35.1 53 -6.9 19.6
16:35 1004 29.65 833 24.6 1.7 35 53 -7 19.4
16:40 1004 29.65 833 24.6 1.1 33.9 57 -6.6 20.1
16:45 1004 29.65 833 24.6 1.7 35.1 53 -6.8 19.8
16:50 1004 29.65 833 24.6 1.9 35.4 53 -6.6 20
16:55 1004 29.65 833 24.6 1.6 34.9 54 -6.8 19.8
17:00 1004 29.65 833 24.6 1.5 34.7 56 -6.3 20.7
17:05 1004 29.65 833 24.6 1.1 34 57 -6.4 20.6
17:10 1004 29.65 833 24.6 0.8 33.4 58 -6.5 20.3
17:15 1004 29.65 833 24.6 0.8 33.5 58 -6.5 20.3
17:20 1004 29.65 833 24.6 0.7 33.3 57 -6.9 19.6
17:25 1004 29.65 833 24.6 0.3 32.5 62 -6.2 20.8
17:30 1004 29.65 833 24.6 -0.1 31.9 60 -6.9 19.5
17:35 1004 29.65 833 24.6 -0.2 31.7 62 -6.7 19.9
17:40 1004 29.65 833 24.6 -0.2 31.6 61 -6.8 19.8
17:45 1004 29.65 833 24.6 0 32 61 -6.7 20
17:50 1004 29.65 833 24.6 0 32 59 -7 19.3
17:55 1004 29.65 833 24.6 -0.3 31.5 61 -7 19.4
18:00 1004 29.65 833 24.6 -0.5 31.1 61 -7.2 19
18:05 1004 29.65 833 24.6 -1.1 30.1 64 -7 19.4
18:10 1004 29.65 833 24.6 -1.1 29.9 66 -6.7 19.9
18:15 1004 29.65 833 24.6 -1.2 29.9 65 -7 19.5
18:20 1004 29.65 833 24.6 -1.3 29.7 65 -7 19.4
18:25 1004 29.65 833 24.6 -1.5 29.2 64 -7.4 18.7
18:30 1003 29.62 833 24.6 -2 28.4 67 -7.3 18.9
18:35 1004 29.65 833 24.6 -1.6 29.1 65 -7.4 18.8
18:40 1004 29.65 833 24.6 -1.5 29.3 66 -7 19.4
18:45 1004 29.65 833 24.6 -1.6 29.2 67 -6.9 19.5
18:50 1004 29.65 833 24.6 -1.7 29 68 -6.9 19.5
18:55 1004 29.65 833 24.6 -1.9 28.6 68 -7 19.3
19:00 1004 29.65 833 24.6 -2.1 28.2 69 -7.1 19.3
19:05 1004 29.65 833 24.6 -2.5 27.5 72 -6.9 19.5
19:10 1004 29.65 833 24.6 -2.5 27.4 72 -6.9 19.5
19:15 1004 29.65 833 24.6 -2.6 27.2 73 -6.8 19.8
19:20 1004 29.65 833 24.6 -2.7 27.1 74 -6.7 19.9
19:25 1004 29.65 833 24.6 -3 26.6 74 -7 19.4
19:30 1004 29.65 833 24.6 -3.1 26.5 73 -7.2 19
19:35 1004 29.65 833 24.6 -3 26.5 75 -6.9 19.6
19:40 1004 29.65 833 24.6 -3 26.6 75 -6.9 19.6
19:45 1004 29.65 833 24.6 -3 26.5 77 -6.6 20.2
19:50 1004 29.65 833 24.6 -3 26.5 76 -6.6 20
19:55 1004 29.65 833 24.6 -3 26.5 79 -6.2 20.9
20:00 1004 29.65 833 24.6 -2.9 26.8 79 -6.1 21.1
20:05 1004 29.65 833 24.6 -2.9 26.8 80 -5.8 21.6
20:10 1004 29.65 833 24.6 -2.8 26.9 79 -5.9 21.4
20:15 1004 29.65 833 24.6 -2.8 26.9 80 -5.8 21.6
20:20 1004 29.65 833 24.6 -2.8 26.9 81 -5.7 21.7
20:25 1004 29.65 833 24.6 -2.8 26.9 81 -5.7 21.7
20:30 1004 29.65 833 24.6 -2.8 27 81 -5.7 21.8
20:35 1004 29.65 833 24.6 -2.6 27.4 81 -5.3 22.4
20:40 1004 29.65 833 24.6 -2.2 28 80 -5.2 22.7
20:45 1004 29.65 833 24.6 -2.1 28.3 80 -5.1 22.8
20:50 1004 29.65 833 24.6 -2.1 28.3 81 -4.9 23.1
20:55 1004 29.65 833 24.6 -2.1 28.3 81 -4.9 23.2
21:00 1004 29.65 833 24.6 -2 28.4 83 -4.5 23.9
21:05 1004 29.65 833 24.6 -2 28.4 83 -4.4 24
21:10 1004 29.65 833 24.6 -2.1 28.3 85 -4.3 24.2
21:15 1004 29.65 833 24.6 -2.1 28.3 85 -4.3 24.3
21:20 1004 29.65 833 24.6 -2.1 28.3 84 -4.4 24
21:25 1004 29.65 833 24.6 -2.1 28.2 84 -4.5 24
21:30 1004 29.65 833 24.6 -2.1 28.1 84 -4.5 24
21:35 1004 29.65 833 24.6 -2.2 28 84 -4.5 23.8
21:40 1004 29.65 833 24.6 -2.2 28 84 -4.6 23.8
21:45 1004 29.65 834 24.63 -2.3 27.9 85 -4.6 23.8
21:50 1004 29.65 834 24.63 -2.3 27.8 83 -4.8 23.4
21:55 1004 29.65 834 24.63 -2.5 27.6 84 -4.7 23.5
22:00 1004 29.65 834 24.63 -2.5 27.5 86 -4.6 23.7
22:05 1004 29.65 834 24.63 -2.6 27.4 86 -4.6 23.6
22:10 1004 29.65 834 24.63 -2.7 27.2 86 -4.7 23.5
22:15 1004 29.65 834 24.63 -2.8 27 87 -4.7 23.6
22:20 1004 29.65 834 24.63 -2.9 26.7 89 -4.6 23.8
22:25 1004 29.65 834 24.63 -2.9 26.8 90 -4.3 24.2
22:30 1004 29.65 834 24.63 -2.9 26.7 90 -4.3 24.2
22:35 1004 29.65 834 24.63 -3.1 26.4 91 -4.4 24.1
22:40 1004 29.65 834 24.63 -3.1 26.5 92 -4.2 24.4
22:45 1004 29.65 834 24.63 -3 26.5 92 -4.1 24.5
22:50 1004 29.65 834 24.63 -3 26.6 92 -4.1 24.6
22:55 1004 29.65 834 24.63 -3 26.6 92 -4.1 24.6
23:00 1004 29.65 834 24.63 -3.1 26.5 93 -4.1 24.7
23:05 1004 29.65 834 24.63 -3 26.6 93 -3.9 24.9
23:10 1005 29.68 834 24.63 -2.9 26.9 93 -3.8 25.1
23:15 1005 29.68 834 24.63 -2.8 26.9 93 -3.8 25.2
23:20 1005 29.68 834 24.63 -2.9 26.8 94 -3.8 25.2
23:25 1005 29.68 834 24.63 -2.7 27.2 94 -3.6 25.6
23:30 1005 29.68 834 24.63 -2.6 27.3 92 -3.7 25.4
23:35 1005 29.68 834 24.63 -2.8 27 92 -3.9 25
23:40 1005 29.68 834 24.63 -3.1 26.4 91 -4.4 24.2
23:45 1005 29.68 834 24.63 -3.5 25.8 91 -4.7 23.6
23:50 1005 29.68 834 24.63 -3.7 25.3 92 -4.9 23.2
23:55 1005 29.68 835 24.66 -4.1 24.7 91 -5.3 22.4
24:00 1006 29.71 835 24.66 -4.4 24.2 91 -5.6 22